sensor_id;sensor_type;location;lat;lon;timestamp;noise_LAeq;noise_LA_min;noise_LA_max;noise_LA01;noise_LA95
77135;Laerm;48586;50.122;18.972;2023-10-31T00:00:13;53.77;50.22;56.32;;
77135;Laerm;48586;50.122;18.972;2023-10-31T00:03:17;53.36;49.91;55.46;;
77135;Laerm;48586;50.122;18.972;2023-10-31T00:06:23;53.01;49.86;55.21;;
77135;Laerm;48586;50.122;18.972;2023-10-31T00:09:28;52.90;50.26;54.98;;
77135;Laerm;48586;50.122;18.972;2023-10-31T00:12:33;52.46;49.29;54.39;;
77135;Laerm;48586;50.122;18.972;2023-10-31T00:15:41;52.31;50.62;54.23;;
77135;Laerm;48586;50.122;18.972;2023-10-31T00:18:47;52.22;49.53;54.08;;
77135;Laerm;48586;50.122;18.972;2023-10-31T00:21:52;52.07;50.37;53.63;;
77135;Laerm;48586;50.122;18.972;2023-10-31T00:24:58;52.00;49.38;53.89;;
77135;Laerm;48586;50.122;18.972;2023-10-31T00:28:03;52.04;49.25;53.99;;
77135;Laerm;48586;50.122;18.972;2023-10-31T00:31:11;51.97;48.57;54.30;;
77135;Laerm;48586;50.122;18.972;2023-10-31T00:34:16;51.96;50.41;53.55;;
77135;Laerm;48586;50.122;18.972;2023-10-31T00:37:21;51.96;49.52;54.09;;
77135;Laerm;48586;50.122;18.972;2023-10-31T00:40:27;51.97;49.33;54.74;;
77135;Laerm;48586;50.122;18.972;2023-10-31T00:43:33;51.66;48.50;53.05;;
77135;Laerm;48586;50.122;18.972;2023-10-31T00:46:42;51.96;50.21;57.22;;
77135;Laerm;48586;50.122;18.972;2023-10-31T00:49:47;51.69;49.62;53.11;;
77135;Laerm;48586;50.122;18.972;2023-10-31T00:52:55;51.73;49.40;53.49;;
77135;Laerm;48586;50.122;18.972;2023-10-31T00:56:03;51.81;49.41;53.70;;
77135;Laerm;48586;50.122;18.972;2023-10-31T00:59:08;51.82;49.11;54.09;;
77135;Laerm;48586;50.122;18.972;2023-10-31T01:02:17;51.89;49.20;57.14;;
77135;Laerm;48586;50.122;18.972;2023-10-31T01:05:22;51.58;49.13;53.29;;
77135;Laerm;48586;50.122;18.972;2023-10-31T01:08:30;51.74;48.87;54.74;;
77135;Laerm;48586;50.122;18.972;2023-10-31T01:11:36;51.61;48.86;56.53;;
77135;Laerm;48586;50.122;18.972;2023-10-31T01:14:42;52.08;50.26;65.62;;
77135;Laerm;48586;50.122;18.972;2023-10-31T01:17:49;51.68;50.10;53.28;;
77135;Laerm;48586;50.122;18.972;2023-10-31T01:20:55;51.81;49.60;53.57;;
77135;Laerm;48586;50.122;18.972;2023-10-31T01:24:01;52.04;49.86;55.17;;
77135;Laerm;48586;50.122;18.972;2023-10-31T01:27:08;51.88;50.20;53.48;;
77135;Laerm;48586;50.122;18.972;2023-10-31T01:30:14;51.96;49.42;54.00;;
77135;Laerm;48586;50.122;18.972;2023-10-31T01:33:23;51.84;49.05;56.04;;
77135;Laerm;48586;50.122;18.972;2023-10-31T01:36:28;52.07;49.03;60.26;;
77135;Laerm;48586;50.122;18.972;2023-10-31T01:39:35;51.53;49.01;53.95;;
77135;Laerm;48586;50.122;18.972;2023-10-31T01:42:40;51.49;49.56;53.10;;
77135;Laerm;48586;50.122;18.972;2023-10-31T01:45:47;51.68;49.64;54.79;;
77135;Laerm;48586;50.122;18.972;2023-10-31T01:48:55;51.95;49.55;59.30;;
77135;Laerm;48586;50.122;18.972;2023-10-31T01:52:03;51.71;49.99;54.65;;
77135;Laerm;48586;50.122;18.972;2023-10-31T01:55:10;51.64;49.53;53.40;;
77135;Laerm;48586;50.122;18.972;2023-10-31T01:58:18;51.71;49.78;54.90;;
77135;Laerm;48586;50.122;18.972;2023-10-31T02:01:26;51.51;48.90;53.17;;
77135;Laerm;48586;50.122;18.972;2023-10-31T02:04:37;51.12;49.16;52.58;;
77135;Laerm;48586;50.122;18.972;2023-10-31T02:07:45;51.09;48.92;52.97;;
77135;Laerm;48586;50.122;18.972;2023-10-31T02:10:52;51.30;49.41;54.84;;
77135;Laerm;48586;50.122;18.972;2023-10-31T02:13:57;51.10;49.04;52.53;;
77135;Laerm;48586;50.122;18.972;2023-10-31T02:17:03;51.11;49.54;52.83;;
77135;Laerm;48586;50.122;18.972;2023-10-31T02:20:12;51.17;49.67;52.97;;
77135;Laerm;48586;50.122;18.972;2023-10-31T02:23:21;51.33;49.72;52.78;;
77135;Laerm;48586;50.122;18.972;2023-10-31T02:26:30;51.39;49.85;53.06;;
77135;Laerm;48586;50.122;18.972;2023-10-31T02:29:38;51.59;49.91;55.45;;
77135;Laerm;48586;50.122;18.972;2023-10-31T02:32:44;51.53;49.81;57.22;;
77135;Laerm;48586;50.122;18.972;2023-10-31T02:35:50;51.48;49.77;53.18;;
77135;Laerm;48586;50.122;18.972;2023-10-31T02:38:59;51.59;49.89;53.18;;
77135;Laerm;48586;50.122;18.972;2023-10-31T02:42:05;51.90;50.19;56.09;;
77135;Laerm;48586;50.122;18.972;2023-10-31T02:45:12;51.94;50.03;55.84;;
77135;Laerm;48586;50.122;18.972;2023-10-31T02:48:17;51.78;50.16;60.18;;
77135;Laerm;48586;50.122;18.972;2023-10-31T02:51:23;51.71;48.99;53.42;;
77135;Laerm;48586;50.122;18.972;2023-10-31T02:54:30;51.57;49.26;57.20;;
77135;Laerm;48586;50.122;18.972;2023-10-31T02:57:36;51.32;48.99;53.20;;
77135;Laerm;48586;50.122;18.972;2023-10-31T03:00:42;51.44;49.47;55.93;;
77135;Laerm;48586;50.122;18.972;2023-10-31T03:03:49;51.21;48.97;52.59;;
77135;Laerm;48586;50.122;18.972;2023-10-31T03:06:54;51.23;49.82;53.07;;
77135;Laerm;48586;50.122;18.972;2023-10-31T03:10:02;51.37;49.61;55.15;;
77135;Laerm;48586;50.122;18.972;2023-10-31T03:13:08;51.63;49.08;55.99;;
77135;Laerm;48586;50.122;18.972;2023-10-31T03:16:15;51.18;48.74;52.89;;
77135;Laerm;48586;50.122;18.972;2023-10-31T03:19:22;51.61;49.60;55.09;;
77135;Laerm;48586;50.122;18.972;2023-10-31T03:22:28;51.37;48.95;55.27;;
77135;Laerm;48586;50.122;18.972;2023-10-31T03:25:35;51.56;48.90;63.36;;
77135;Laerm;48586;50.122;18.972;2023-10-31T03:28:42;51.11;48.43;56.75;;
77135;Laerm;48586;50.122;18.972;2023-10-31T03:31:47;51.55;49.01;63.63;;
77135;Laerm;48586;50.122;18.972;2023-10-31T03:34:52;51.13;48.67;66.63;;
77135;Laerm;48586;50.122;18.972;2023-10-31T03:37:56;51.08;48.71;65.90;;
77135;Laerm;48586;50.122;18.972;2023-10-31T03:41:05;51.36;48.83;69.77;;
77135;Laerm;48586;50.122;18.972;2023-10-31T03:44:11;51.87;49.30;68.90;;
77135;Laerm;48586;50.122;18.972;2023-10-31T03:47:17;53.96;49.18;78.98;;
77135;Laerm;48586;50.122;18.972;2023-10-31T03:50:21;52.18;49.35;69.76;;
77135;Laerm;48586;50.122;18.972;2023-10-31T03:53:28;51.21;48.93;64.52;;
77135;Laerm;48586;50.122;18.972;2023-10-31T03:56:43;51.78;49.04;59.37;;
77135;Laerm;48586;50.122;18.972;2023-10-31T03:59:53;51.37;48.50;63.52;;
77135;Laerm;48586;50.122;18.972;2023-10-31T04:02:58;52.39;48.85;66.86;;
77135;Laerm;48586;50.122;18.972;2023-10-31T04:06:05;52.40;49.21;65.40;;
77135;Laerm;48586;50.122;18.972;2023-10-31T04:09:09;53.27;48.89;67.34;;
77135;Laerm;48586;50.122;18.972;2023-10-31T04:12:21;52.24;48.76;64.53;;
77135;Laerm;48586;50.122;18.972;2023-10-31T04:15:27;50.78;48.73;61.60;;
77135;Laerm;48586;50.122;18.972;2023-10-31T04:18:33;51.70;48.92;68.57;;
77135;Laerm;48586;50.122;18.972;2023-10-31T04:21:39;51.69;49.16;59.01;;
77135;Laerm;48586;50.122;18.972;2023-10-31T04:24:45;52.64;48.86;58.94;;
77135;Laerm;48586;50.122;18.972;2023-10-31T04:27:53;52.56;49.12;73.07;;
77135;Laerm;48586;50.122;18.972;2023-10-31T04:31:00;51.96;49.08;65.29;;
77135;Laerm;48586;50.122;18.972;2023-10-31T04:34:05;51.68;49.21;66.92;;
77135;Laerm;48586;50.122;18.972;2023-10-31T04:37:12;53.28;49.56;73.51;;
77135;Laerm;48586;50.122;18.972;2023-10-31T04:40:17;54.15;49.20;69.58;;
77135;Laerm;48586;50.122;18.972;2023-10-31T04:43:26;52.68;49.20;69.66;;
77135;Laerm;48586;50.122;18.972;2023-10-31T04:46:30;51.81;49.32;65.89;;
77135;Laerm;48586;50.122;18.972;2023-10-31T04:49:36;52.51;48.83;62.19;;
77135;Laerm;48586;50.122;18.972;2023-10-31T04:52:42;52.88;48.70;71.54;;
77135;Laerm;48586;50.122;18.972;2023-10-31T04:55:48;52.71;49.27;64.34;;
77135;Laerm;48586;50.122;18.972;2023-10-31T04:58:55;53.11;49.46;69.58;;
77135;Laerm;48586;50.122;18.972;2023-10-31T05:02:00;53.14;49.17;74.47;;
77135;Laerm;48586;50.122;18.972;2023-10-31T05:05:06;52.12;48.83;63.61;;
77135;Laerm;48586;50.122;18.972;2023-10-31T05:08:13;52.54;48.95;65.11;;
77135;Laerm;48586;50.122;18.972;2023-10-31T05:11:19;52.64;49.35;62.37;;
77135;Laerm;48586;50.122;18.972;2023-10-31T05:14:27;53.57;49.14;64.50;;
77135;Laerm;48586;50.122;18.972;2023-10-31T05:17:33;53.84;49.36;70.91;;
77135;Laerm;48586;50.122;18.972;2023-10-31T05:20:41;54.51;49.11;71.14;;
77135;Laerm;48586;50.122;18.972;2023-10-31T05:23:46;59.29;49.79;81.28;;
77135;Laerm;48586;50.122;18.972;2023-10-31T05:26:51;55.19;49.58;72.14;;
77135;Laerm;48586;50.122;18.972;2023-10-31T05:29:59;54.31;49.35;76.56;;
77135;Laerm;48586;50.122;18.972;2023-10-31T05:33:05;55.32;49.51;81.37;;
77135;Laerm;48586;50.122;18.972;2023-10-31T05:36:19;56.48;50.93;75.09;;
77135;Laerm;48586;50.122;18.972;2023-10-31T05:39:26;54.62;50.76;68.98;;
77135;Laerm;48586;50.122;18.972;2023-10-31T05:42:31;54.54;50.52;74.88;;
77135;Laerm;48586;50.122;18.972;2023-10-31T05:45:39;59.08;51.25;82.36;;
77135;Laerm;48586;50.122;18.972;2023-10-31T05:48:46;56.83;51.25;77.20;;
77135;Laerm;48586;50.122;18.972;2023-10-31T05:51:54;54.75;50.35;70.63;;
77135;Laerm;48586;50.122;18.972;2023-10-31T05:55:00;59.99;51.43;79.91;;
77135;Laerm;48586;50.122;18.972;2023-10-31T05:58:06;59.45;51.15;85.22;;
77135;Laerm;48586;50.122;18.972;2023-10-31T06:01:13;56.01;51.03;75.46;;
77135;Laerm;48586;50.122;18.972;2023-10-31T06:04:19;61.02;49.70;84.03;;
77135;Laerm;48586;50.122;18.972;2023-10-31T06:07:26;58.14;51.49;78.81;;
77135;Laerm;48586;50.122;18.972;2023-10-31T06:10:34;55.82;51.74;72.23;;
77135;Laerm;48586;50.122;18.972;2023-10-31T06:13:39;55.81;50.63;71.21;;
77135;Laerm;48586;50.122;18.972;2023-10-31T06:16:47;55.52;50.64;70.12;;
77135;Laerm;48586;50.122;18.972;2023-10-31T06:19:54;59.67;51.90;81.79;;
77135;Laerm;48586;50.122;18.972;2023-10-31T06:23:00;55.97;51.59;79.28;;
77135;Laerm;48586;50.122;18.972;2023-10-31T06:26:06;58.39;51.97;83.98;;
77135;Laerm;48586;50.122;18.972;2023-10-31T06:29:13;56.18;51.68;73.22;;
77135;Laerm;48586;50.122;18.972;2023-10-31T06:32:20;55.26;51.18;65.50;;
77135;Laerm;48586;50.122;18.972;2023-10-31T06:35:26;60.67;52.43;86.63;;
77135;Laerm;48586;50.122;18.972;2023-10-31T06:38:31;56.12;51.09;73.40;;
77135;Laerm;48586;50.122;18.972;2023-10-31T06:41:37;57.93;51.66;78.48;;
77135;Laerm;48586;50.122;18.972;2023-10-31T06:44:42;56.11;51.56;71.93;;
77135;Laerm;48586;50.122;18.972;2023-10-31T06:47:50;69.48;52.19;87.82;;
77135;Laerm;48586;50.122;18.972;2023-10-31T06:50:55;55.93;51.58;73.55;;
77135;Laerm;48586;50.122;18.972;2023-10-31T06:54:01;56.60;51.70;77.03;;
77135;Laerm;48586;50.122;18.972;2023-10-31T06:57:06;56.73;51.35;77.48;;
77135;Laerm;48586;50.122;18.972;2023-10-31T07:00:13;57.93;51.46;79.53;;
77135;Laerm;48586;50.122;18.972;2023-10-31T07:03:20;56.03;51.03;76.22;;
77135;Laerm;48586;50.122;18.972;2023-10-31T07:06:26;55.70;51.57;74.19;;
77135;Laerm;48586;50.122;18.972;2023-10-31T07:09:32;56.05;51.08;71.84;;
77135;Laerm;48586;50.122;18.972;2023-10-31T07:12:38;56.15;51.81;72.58;;
77135;Laerm;48586;50.122;18.972;2023-10-31T07:15:43;56.37;51.71;70.81;;
77135;Laerm;48586;50.122;18.972;2023-10-31T07:18:51;55.84;51.47;72.69;;
77135;Laerm;48586;50.122;18.972;2023-10-31T07:21:56;56.20;50.62;77.44;;
77135;Laerm;48586;50.122;18.972;2023-10-31T07:25:02;54.34;50.55;70.40;;
77135;Laerm;48586;50.122;18.972;2023-10-31T07:28:07;55.12;51.73;66.00;;
77135;Laerm;48586;50.122;18.972;2023-10-31T07:31:12;55.49;51.11;67.66;;
77135;Laerm;48586;50.122;18.972;2023-10-31T07:34:19;55.81;51.54;73.77;;
77135;Laerm;48586;50.122;18.972;2023-10-31T07:37:25;55.38;50.70;70.88;;
77135;Laerm;48586;50.122;18.972;2023-10-31T07:40:29;54.72;51.19;61.50;;
77135;Laerm;48586;50.122;18.972;2023-10-31T07:43:38;55.26;51.04;67.05;;
77135;Laerm;48586;50.122;18.972;2023-10-31T07:46:44;55.72;51.43;70.78;;
77135;Laerm;48586;50.122;18.972;2023-10-31T07:49:52;55.52;51.60;65.12;;
77135;Laerm;48586;50.122;18.972;2023-10-31T07:52:58;55.56;51.76;61.70;;
77135;Laerm;48586;50.122;18.972;2023-10-31T07:56:05;54.46;50.90;63.26;;
77135;Laerm;48586;50.122;18.972;2023-10-31T07:59:20;56.22;51.19;76.32;;
77135;Laerm;48586;50.122;18.972;2023-10-31T08:02:26;54.24;50.69;65.99;;
77135;Laerm;48586;50.122;18.972;2023-10-31T08:05:34;54.53;50.96;64.10;;
77135;Laerm;48586;50.122;18.972;2023-10-31T08:08:41;55.18;51.56;62.07;;
77135;Laerm;48586;50.122;18.972;2023-10-31T08:11:46;54.72;51.36;62.77;;
77135;Laerm;48586;50.122;18.972;2023-10-31T08:14:52;54.10;51.01;59.00;;
77135;Laerm;48586;50.122;18.972;2023-10-31T08:17:57;54.70;50.70;67.81;;
77135;Laerm;48586;50.122;18.972;2023-10-31T08:21:06;55.06;51.51;61.26;;
77135;Laerm;48586;50.122;18.972;2023-10-31T08:24:12;54.82;51.18;64.23;;
77135;Laerm;48586;50.122;18.972;2023-10-31T08:27:18;55.34;51.13;68.70;;
77135;Laerm;48586;50.122;18.972;2023-10-31T08:30:23;55.40;51.71;73.13;;
77135;Laerm;48586;50.122;18.972;2023-10-31T08:33:29;57.64;51.15;82.45;;
77135;Laerm;48586;50.122;18.972;2023-10-31T08:36:37;55.00;51.57;63.04;;
77135;Laerm;48586;50.122;18.972;2023-10-31T08:39:43;54.54;50.65;59.45;;
77135;Laerm;48586;50.122;18.972;2023-10-31T08:42:48;55.20;50.87;63.77;;
77135;Laerm;48586;50.122;18.972;2023-10-31T08:45:54;55.67;51.44;71.29;;
77135;Laerm;48586;50.122;18.972;2023-10-31T08:48:59;54.98;51.39;65.58;;
77135;Laerm;48586;50.122;18.972;2023-10-31T08:52:08;55.16;50.55;73.47;;
77135;Laerm;48586;50.122;18.972;2023-10-31T08:55:13;55.54;50.68;72.66;;
77135;Laerm;48586;50.122;18.972;2023-10-31T08:58:18;59.41;50.96;82.72;;
77135;Laerm;48586;50.122;18.972;2023-10-31T09:01:24;58.61;51.65;82.89;;
77135;Laerm;48586;50.122;18.972;2023-10-31T09:04:32;57.09;51.13;79.52;;
77135;Laerm;48586;50.122;18.972;2023-10-31T09:07:40;57.45;51.86;79.80;;
77135;Laerm;48586;50.122;18.972;2023-10-31T09:10:47;65.16;51.91;87.23;;
77135;Laerm;48586;50.122;18.972;2023-10-31T09:13:52;64.90;51.75;93.42;;
77135;Laerm;48586;50.122;18.972;2023-10-31T09:16:59;66.13;52.28;86.22;;
77135;Laerm;48586;50.122;18.972;2023-10-31T09:20:07;59.49;51.07;79.58;;
77135;Laerm;48586;50.122;18.972;2023-10-31T09:23:16;60.69;52.73;79.99;;
77135;Laerm;48586;50.122;18.972;2023-10-31T09:26:22;55.83;51.10;75.61;;
77135;Laerm;48586;50.122;18.972;2023-10-31T09:29:28;56.94;50.98;76.41;;
77135;Laerm;48586;50.122;18.972;2023-10-31T09:32:33;61.08;51.50;82.76;;
77135;Laerm;48586;50.122;18.972;2023-10-31T09:35:39;57.99;51.46;76.50;;
77135;Laerm;48586;50.122;18.972;2023-10-31T09:38:48;60.64;51.58;87.33;;
77135;Laerm;48586;50.122;18.972;2023-10-31T09:41:54;57.32;51.65;79.70;;
77135;Laerm;48586;50.122;18.972;2023-10-31T09:44:59;59.02;51.70;81.91;;
77135;Laerm;48586;50.122;18.972;2023-10-31T09:48:06;56.12;51.60;73.03;;
77135;Laerm;48586;50.122;18.972;2023-10-31T09:51:11;56.38;51.74;66.86;;
77135;Laerm;48586;50.122;18.972;2023-10-31T09:54:21;55.30;51.23;59.25;;
77135;Laerm;48586;50.122;18.972;2023-10-31T09:57:27;57.34;51.18;77.19;;
77135;Laerm;48586;50.122;18.972;2023-10-31T10:00:33;56.27;51.70;68.74;;
77135;Laerm;48586;50.122;18.972;2023-10-31T10:03:41;55.42;51.16;64.76;;
77135;Laerm;48586;50.122;18.972;2023-10-31T10:06:52;55.45;50.94;70.22;;
77135;Laerm;48586;50.122;18.972;2023-10-31T10:10:10;55.84;51.02;72.66;;
77135;Laerm;48586;50.122;18.972;2023-10-31T10:13:18;56.55;50.92;73.55;;
77135;Laerm;48586;50.122;18.972;2023-10-31T10:16:32;56.43;50.54;77.66;;
77135;Laerm;48586;50.122;18.972;2023-10-31T10:19:38;56.30;50.36;75.23;;
77135;Laerm;48586;50.122;18.972;2023-10-31T10:22:46;54.42;50.59;71.27;;
77135;Laerm;48586;50.122;18.972;2023-10-31T10:25:57;54.85;50.48;71.33;;
77135;Laerm;48586;50.122;18.972;2023-10-31T10:29:04;54.82;49.93;71.00;;
77135;Laerm;48586;50.122;18.972;2023-10-31T10:32:10;55.33;51.08;72.64;;
77135;Laerm;48586;50.122;18.972;2023-10-31T10:35:15;54.56;50.31;69.16;;
77135;Laerm;48586;50.122;18.972;2023-10-31T10:38:23;56.87;50.71;76.73;;
77135;Laerm;48586;50.122;18.972;2023-10-31T10:41:35;57.25;51.17;78.74;;
77135;Laerm;48586;50.122;18.972;2023-10-31T10:44:45;58.79;51.02;80.15;;
77135;Laerm;48586;50.122;18.972;2023-10-31T10:47:52;60.62;51.00;81.67;;
77135;Laerm;48586;50.122;18.972;2023-10-31T10:51:09;57.49;50.30;77.24;;
77135;Laerm;48586;50.122;18.972;2023-10-31T10:54:32;55.50;50.58;69.85;;
77135;Laerm;48586;50.122;18.972;2023-10-31T10:57:55;54.47;50.70;67.19;;
77135;Laerm;48586;50.122;18.972;2023-10-31T11:01:06;67.30;51.78;83.39;;
77135;Laerm;48586;50.122;18.972;2023-10-31T11:04:14;65.78;50.25;86.54;;
77135;Laerm;48586;50.122;18.972;2023-10-31T11:07:21;55.48;51.00;71.99;;
77135;Laerm;48586;50.122;18.972;2023-10-31T11:10:29;55.02;51.31;73.28;;
77135;Laerm;48586;50.122;18.972;2023-10-31T11:13:37;54.86;50.47;70.94;;
77135;Laerm;48586;50.122;18.972;2023-10-31T11:16:51;55.87;50.59;70.49;;
77135;Laerm;48586;50.122;18.972;2023-10-31T11:19:59;57.05;51.34;74.55;;
77135;Laerm;48586;50.122;18.972;2023-10-31T11:23:06;54.67;50.59;65.94;;
77135;Laerm;48586;50.122;18.972;2023-10-31T11:26:12;54.67;50.46;75.31;;
77135;Laerm;48586;50.122;18.972;2023-10-31T11:29:21;54.57;50.79;70.52;;
77135;Laerm;48586;50.122;18.972;2023-10-31T11:32:27;54.69;51.23;66.35;;
77135;Laerm;48586;50.122;18.972;2023-10-31T11:35:34;55.76;51.16;69.98;;
77135;Laerm;48586;50.122;18.972;2023-10-31T11:38:40;55.62;50.78;69.79;;
77135;Laerm;48586;50.122;18.972;2023-10-31T11:41:50;57.38;51.46;80.09;;
77135;Laerm;48586;50.122;18.972;2023-10-31T11:44:58;54.11;50.73;67.40;;
77135;Laerm;48586;50.122;18.972;2023-10-31T11:48:05;53.97;50.40;62.73;;
77135;Laerm;48586;50.122;18.972;2023-10-31T11:51:13;54.97;50.39;74.57;;
77135;Laerm;48586;50.122;18.972;2023-10-31T11:54:20;55.92;51.63;69.71;;
77135;Laerm;48586;50.122;18.972;2023-10-31T11:57:30;54.47;50.13;67.89;;
77135;Laerm;48586;50.122;18.972;2023-10-31T12:00:39;54.55;50.63;69.33;;
77135;Laerm;48586;50.122;18.972;2023-10-31T12:03:44;56.27;51.45;70.95;;
77135;Laerm;48586;50.122;18.972;2023-10-31T12:07:00;57.31;51.15;75.00;;
77135;Laerm;48586;50.122;18.972;2023-10-31T12:10:09;55.24;51.05;67.57;;
77135;Laerm;48586;50.122;18.972;2023-10-31T12:13:15;55.92;51.38;72.66;;
77135;Laerm;48586;50.122;18.972;2023-10-31T12:16:24;55.65;51.22;66.32;;
77135;Laerm;48586;50.122;18.972;2023-10-31T12:19:32;55.71;51.45;68.82;;
77135;Laerm;48586;50.122;18.972;2023-10-31T12:22:38;55.87;51.41;62.54;;
77135;Laerm;48586;50.122;18.972;2023-10-31T12:25:49;55.33;51.40;70.91;;
77135;Laerm;48586;50.122;18.972;2023-10-31T12:29:11;54.88;51.41;60.23;;
77135;Laerm;48586;50.122;18.972;2023-10-31T12:32:21;54.56;50.93;59.74;;
77135;Laerm;48586;50.122;18.972;2023-10-31T12:35:27;54.05;51.08;58.87;;
77135;Laerm;48586;50.122;18.972;2023-10-31T12:38:33;54.30;50.49;62.75;;
77135;Laerm;48586;50.122;18.972;2023-10-31T12:41:40;54.87;50.76;59.87;;
77135;Laerm;48586;50.122;18.972;2023-10-31T12:44:46;54.81;51.75;60.43;;
77135;Laerm;48586;50.122;18.972;2023-10-31T12:48:07;55.39;51.84;71.00;;
77135;Laerm;48586;50.122;18.972;2023-10-31T12:51:15;55.53;51.14;60.78;;
77135;Laerm;48586;50.122;18.972;2023-10-31T12:54:29;55.87;52.50;65.22;;
77135;Laerm;48586;50.122;18.972;2023-10-31T12:57:37;55.70;51.86;62.32;;
77135;Laerm;48586;50.122;18.972;2023-10-31T13:00:43;56.34;52.65;62.52;;
77135;Laerm;48586;50.122;18.972;2023-10-31T13:03:52;56.04;51.80;60.55;;
77135;Laerm;48586;50.122;18.972;2023-10-31T13:06:58;56.52;53.34;67.06;;
77135;Laerm;48586;50.122;18.972;2023-10-31T13:10:08;56.02;51.92;64.41;;
77135;Laerm;48586;50.122;18.972;2023-10-31T13:13:14;56.85;52.06;64.84;;
77135;Laerm;48586;50.122;18.972;2023-10-31T13:16:21;57.36;53.69;64.76;;
77135;Laerm;48586;50.122;18.972;2023-10-31T13:19:29;57.82;53.67;71.29;;
77135;Laerm;48586;50.122;18.972;2023-10-31T13:22:35;58.46;54.10;73.99;;
77135;Laerm;48586;50.122;18.972;2023-10-31T13:25:41;58.32;54.18;65.91;;
77135;Laerm;48586;50.122;18.972;2023-10-31T13:28:47;58.98;54.88;64.13;;
77135;Laerm;48586;50.122;18.972;2023-10-31T13:31:53;59.50;54.72;71.29;;
77135;Laerm;48586;50.122;18.972;2023-10-31T13:35:02;59.60;55.63;63.44;;
77135;Laerm;48586;50.122;18.972;2023-10-31T13:38:08;59.55;55.49;65.34;;
77135;Laerm;48586;50.122;18.972;2023-10-31T13:41:14;60.44;56.65;68.93;;
77135;Laerm;48586;50.122;18.972;2023-10-31T13:44:21;60.72;55.98;67.48;;
77135;Laerm;48586;50.122;18.972;2023-10-31T13:47:27;60.96;56.16;66.60;;
77135;Laerm;48586;50.122;18.972;2023-10-31T13:50:36;60.61;55.78;65.73;;
77135;Laerm;48586;50.122;18.972;2023-10-31T13:53:43;61.09;57.02;64.90;;
77135;Laerm;48586;50.122;18.972;2023-10-31T13:56:49;60.55;56.53;65.23;;
77135;Laerm;48586;50.122;18.972;2023-10-31T13:59:55;60.75;56.14;64.65;;
77135;Laerm;48586;50.122;18.972;2023-10-31T14:06:42;61.21;57.51;66.84;;
77135;Laerm;48586;50.122;18.972;2023-10-31T14:09:47;61.07;56.65;77.29;;
77135;Laerm;48586;50.122;18.972;2023-10-31T14:12:53;61.34;57.71;71.64;;
77135;Laerm;48586;50.122;18.972;2023-10-31T14:15:58;61.79;57.81;82.16;;
77135;Laerm;48586;50.122;18.972;2023-10-31T14:19:04;61.38;57.48;72.40;;
77135;Laerm;48586;50.122;18.972;2023-10-31T14:22:12;62.71;57.84;90.13;;
77135;Laerm;48586;50.122;18.972;2023-10-31T14:25:19;61.51;57.35;72.35;;
77135;Laerm;48586;50.122;18.972;2023-10-31T14:28:24;61.24;57.10;66.52;;
77135;Laerm;48586;50.122;18.972;2023-10-31T14:31:30;61.22;57.13;65.54;;
77135;Laerm;48586;50.122;18.972;2023-10-31T14:34:36;61.38;57.17;65.47;;
77135;Laerm;48586;50.122;18.972;2023-10-31T14:37:45;61.26;56.94;65.34;;
77135;Laerm;48586;50.122;18.972;2023-10-31T14:40:51;61.55;58.00;67.42;;
77135;Laerm;48586;50.122;18.972;2023-10-31T14:43:56;61.33;56.77;65.81;;
77135;Laerm;48586;50.122;18.972;2023-10-31T14:47:00;61.35;56.95;64.70;;
77135;Laerm;48586;50.122;18.972;2023-10-31T14:50:07;61.42;56.17;65.74;;
77135;Laerm;48586;50.122;18.972;2023-10-31T14:53:15;61.09;55.25;64.68;;
77135;Laerm;48586;50.122;18.972;2023-10-31T14:56:21;61.40;55.00;65.51;;
77135;Laerm;48586;50.122;18.972;2023-10-31T14:59:28;61.44;56.74;65.73;;
77135;Laerm;48586;50.122;18.972;2023-10-31T15:02:34;61.25;56.49;64.81;;
77135;Laerm;48586;50.122;18.972;2023-10-31T15:05:40;61.37;56.64;64.74;;
77135;Laerm;48586;50.122;18.972;2023-10-31T15:08:48;61.69;57.82;65.30;;
77135;Laerm;48586;50.122;18.972;2023-10-31T15:11:53;61.24;57.03;65.57;;
77135;Laerm;48586;50.122;18.972;2023-10-31T15:14:59;61.44;56.72;65.12;;
77135;Laerm;48586;50.122;18.972;2023-10-31T15:18:04;61.69;57.10;70.56;;
77135;Laerm;48586;50.122;18.972;2023-10-31T15:21:10;61.72;56.79;65.37;;
77135;Laerm;48586;50.122;18.972;2023-10-31T15:24:17;61.22;56.62;65.41;;
77135;Laerm;48586;50.122;18.972;2023-10-31T15:27:22;61.61;57.53;65.84;;
77135;Laerm;48586;50.122;18.972;2023-10-31T15:30:26;61.42;57.49;65.33;;
77135;Laerm;48586;50.122;18.972;2023-10-31T15:33:32;61.48;57.16;65.55;;
77135;Laerm;48586;50.122;18.972;2023-10-31T15:36:37;61.18;56.03;65.56;;
77135;Laerm;48586;50.122;18.972;2023-10-31T15:39:46;61.43;57.16;65.08;;
77135;Laerm;48586;50.122;18.972;2023-10-31T15:42:53;61.55;57.21;65.99;;
77135;Laerm;48586;50.122;18.972;2023-10-31T15:45:59;61.21;57.24;65.34;;
77135;Laerm;48586;50.122;18.972;2023-10-31T15:49:05;61.30;56.94;65.02;;
77135;Laerm;48586;50.122;18.972;2023-10-31T15:52:11;61.55;57.75;65.26;;
77135;Laerm;48586;50.122;18.972;2023-10-31T15:55:18;61.47;57.70;65.19;;
77135;Laerm;48586;50.122;18.972;2023-10-31T15:58:24;61.57;57.99;65.85;;
77135;Laerm;48586;50.122;18.972;2023-10-31T16:01:30;61.62;56.69;72.69;;
77135;Laerm;48586;50.122;18.972;2023-10-31T16:04:36;61.41;55.38;67.65;;
77135;Laerm;48586;50.122;18.972;2023-10-31T16:07:41;61.40;57.72;65.28;;
77135;Laerm;48586;50.122;18.972;2023-10-31T16:10:50;61.86;58.20;65.69;;
77135;Laerm;48586;50.122;18.972;2023-10-31T16:13:55;61.34;57.46;65.51;;
77135;Laerm;48586;50.122;18.972;2023-10-31T16:17:01;61.57;56.68;65.24;;
77135;Laerm;48586;50.122;18.972;2023-10-31T16:20:07;61.55;57.26;65.17;;
77135;Laerm;48586;50.122;18.972;2023-10-31T16:23:14;61.87;57.81;65.55;;
77135;Laerm;48586;50.122;18.972;2023-10-31T16:26:24;62.03;58.08;65.98;;
77135;Laerm;48586;50.122;18.972;2023-10-31T16:29:30;61.84;56.52;65.67;;
77135;Laerm;48586;50.122;18.972;2023-10-31T16:32:36;61.80;57.64;65.95;;
77135;Laerm;48586;50.122;18.972;2023-10-31T16:35:42;62.17;58.27;65.59;;
77135;Laerm;48586;50.122;18.972;2023-10-31T16:38:47;61.76;57.94;65.14;;
77135;Laerm;48586;50.122;18.972;2023-10-31T16:41:55;61.95;57.03;65.78;;
77135;Laerm;48586;50.122;18.972;2023-10-31T16:45:01;61.73;57.60;69.85;;
77135;Laerm;48586;50.122;18.972;2023-10-31T16:48:07;70.43;57.91;85.86;;
77135;Laerm;48586;50.122;18.972;2023-10-31T16:51:15;62.05;56.37;70.29;;
77135;Laerm;48586;50.122;18.972;2023-10-31T16:54:21;61.87;56.67;68.27;;
77135;Laerm;48586;50.122;18.972;2023-10-31T16:57:29;61.72;57.31;66.36;;
77135;Laerm;48586;50.122;18.972;2023-10-31T17:00:35;61.92;56.84;65.94;;
77135;Laerm;48586;50.122;18.972;2023-10-31T17:03:40;62.25;58.00;66.63;;
77135;Laerm;48586;50.122;18.972;2023-10-31T17:06:45;61.94;56.92;71.73;;
77135;Laerm;48586;50.122;18.972;2023-10-31T17:09:51;62.44;57.79;70.40;;
77135;Laerm;48586;50.122;18.972;2023-10-31T17:13:00;62.24;56.68;77.02;;